Time;durP1;ratioP1;P1;durP2;ratioP2;P2;SDS_P1;SDS_P2;PMS_P1;PMS_P2;Temp;Humidity;BMP_temperature;BMP_pressure;BME280_temperature;BME280_humidity;BME280_pressure;Samples;Min_cycle;Max_cycle;Signal;HPM_P1;HPM_P2
2023/06/27 00:02:02;;;;;;;7.30;3.10;;;;;;;18.29;57.54;101899.59;4942937;28;20031;-80
2023/06/27 00:04:28;;;;;;;5.78;3.25;;;;;;;18.37;57.07;101908.03;4965986;28;20504;-80
2023/06/27 00:06:53;;;;;;;6.35;3.22;;;;;;;18.48;56.85;101910.13;4948605;28;20026;-80
2023/06/27 00:09:19;;;;;;;5.82;2.88;;;;;;;18.51;57.39;101901.91;4951276;28;20560;-80
2023/06/27 00:11:44;;;;;;;6.13;2.85;;;;;;;18.52;56.78;101901.81;4967444;28;20042;-80
2023/06/27 00:14:09;;;;;;;7.63;3.03;;;;;;;18.50;57.40;101908.22;4958142;28;20019;-80
2023/06/27 00:16:36;;;;;;;5.68;3.10;;;;;;;18.50;56.98;101898.34;4961647;28;20027;-80
2023/06/27 00:19:03;;;;;;;6.47;3.10;;;;;;;18.56;56.88;101908.75;4947614;28;20065;-80
2023/06/27 00:21:33;;;;;;;6.88;2.88;;;;;;;18.42;57.55;101902.41;4960334;28;20046;-80
2023/06/27 00:23:59;;;;;;;7.85;3.28;;;;;;;18.39;57.52;101902.59;4965294;28;20077;-80
2023/06/27 00:26:25;;;;;;;8.02;2.88;;;;;;;18.43;57.11;101901.50;4949566;28;20500;-80
2023/06/27 00:28:51;;;;;;;8.50;3.10;;;;;;;18.35;57.29;101891.19;4965010;28;20023;-80
2023/06/27 00:31:16;;;;;;;6.50;3.33;;;;;;;18.39;57.58;101899.94;4950344;28;20041;-80
2023/06/27 00:33:42;;;;;;;4.30;3.25;;;;;;;18.36;58.42;101898.28;4962321;28;20039;-80
2023/06/27 00:36:07;;;;;;;6.30;3.13;;;;;;;18.37;58.18;101897.31;4964883;28;20023;-80
2023/06/27 00:38:33;;;;;;;10.27;3.58;;;;;;;18.40;58.01;101896.28;4947692;28;20089;-80
2023/06/27 00:40:58;;;;;;;10.70;3.47;;;;;;;18.44;57.46;101900.53;4968585;28;20031;-80
2023/06/27 00:43:23;;;;;;;7.97;3.22;;;;;;;18.33;58.66;101893.97;4960675;28;20063;-80
2023/06/27 00:45:52;;;;;;;7.38;3.05;;;;;;;18.34;57.92;101887.66;4944791;28;20038;-80
2023/06/27 00:48:18;;;;;;;8.88;3.50;;;;;;;18.33;58.31;101893.09;4961191;28;20066;-80
2023/06/27 00:50:44;;;;;;;10.13;3.72;;;;;;;18.33;58.01;101898.47;4962647;28;20030;-80
2023/06/27 00:53:11;;;;;;;8.38;3.30;;;;;;;18.42;57.36;101903.31;4947041;28;20023;-80
2023/06/27 00:55:39;;;;;;;6.00;2.90;;;;;;;18.45;57.94;101902.25;4945757;28;20031;-80
2023/06/27 00:58:07;;;;;;;5.68;3.20;;;;;;;18.45;57.34;101902.25;4963007;28;20027;-80
2023/06/27 01:00:32;;;;;;;7.32;3.63;;;;;;;18.51;57.68;101900.09;4962082;28;20030;-80
2023/06/27 01:02:57;;;;;;;9.60;3.53;;;;;;;18.51;57.44;101905.47;4967034;28;20030;-80
2023/06/27 01:05:24;;;;;;;6.40;3.83;;;;;;;18.33;58.30;101904.69;4948536;28;20528;-80
2023/06/27 01:07:56;;;;;;;8.18;3.55;;;;;;;18.24;58.93;101904.31;4954244;28;20140;-80
2023/06/27 01:10:46;;;;;;;7.60;3.70;;;;;;;18.21;57.91;101915.19;4969769;28;20027;-80
2023/06/27 01:13:19;;;;;;;8.02;4.00;;;;;;;18.13;58.45;101898.69;4952789;28;20110;-80
2023/06/27 01:15:44;;;;;;;5.57;3.58;;;;;;;18.20;58.93;101908.97;4966382;28;20029;-80
2023/06/27 01:18:13;;;;;;;7.10;3.83;;;;;;;18.12;58.72;101916.56;4952249;28;20390;-80
2023/06/27 01:20:43;;;;;;;7.00;3.53;;;;;;;18.12;59.53;101910.34;4970836;28;20165;-80
2023/06/27 01:23:17;;;;;;;9.52;3.75;;;;;;;18.12;58.60;101905.00;4969832;28;20402;-80
2023/06/27 01:25:43;;;;;;;11.02;3.60;;;;;;;18.19;59.13;101901.91;4972502;28;20366;-80
2023/06/27 01:28:14;;;;;;;5.60;3.65;;;;;;;18.16;59.44;101907.41;4962307;28;20027;-80
2023/06/27 01:30:40;;;;;;;7.65;3.60;;;;;;;18.10;59.74;101913.13;4969824;28;20169;-80
2023/06/27 01:33:19;;;;;;;7.13;3.50;;;;;;;18.09;59.99;101906.00;4952138;28;20109;-80
2023/06/27 01:35:57;;;;;;;13.23;3.90;;;;;;;18.01;58.84;101900.22;4965535;28;20041;-80
2023/06/27 01:38:30;;;;;;;9.52;3.85;;;;;;;17.99;59.40;101902.97;4961824;28;20108;-81
2023/06/27 01:40:57;;;;;;;7.82;3.53;;;;;;;18.07;59.07;101903.44;4951529;28;20355;-80
2023/06/27 01:43:24;;;;;;;10.77;3.55;;;;;;;18.09;59.05;101911.34;4953184;28;20027;-80
2023/06/27 01:45:50;;;;;;;7.45;3.30;;;;;;;17.97;59.35;101912.03;4965798;28;20386;-80
2023/06/27 01:48:16;;;;;;;8.70;3.45;;;;;;;17.99;59.21;101900.28;4949378;28;20026;-80
2023/06/27 01:50:41;;;;;;;8.98;3.35;;;;;;;18.05;59.13;101901.78;4967524;28;20109;-80
2023/06/27 01:53:07;;;;;;;7.28;3.40;;;;;;;18.06;59.20;101900.84;4964546;28;20369;-80
2023/06/27 01:55:32;;;;;;;7.38;3.30;;;;;;;17.99;59.57;101904.78;4949769;28;20031;-80
2023/06/27 01:57:58;;;;;;;7.88;3.70;;;;;;;18.02;59.40;101900.13;4969473;28;20494;-80
2023/06/27 02:00:24;;;;;;;10.70;3.47;;;;;;;18.02;59.93;101899.28;4963814;28;20043;-80
2023/06/27 02:02:49;;;;;;;6.30;3.28;;;;;;;18.02;59.56;101899.28;4966405;28;20041;-80
2023/06/27 02:05:14;;;;;;;8.15;3.50;;;;;;;18.13;60.03;101901.34;4965776;28;20031;-80
2023/06/27 02:07:40;;;;;;;9.05;3.50;;;;;;;18.01;61.95;101893.06;4971084;28;20054;-80
2023/06/27 02:10:06;;;;;;;9.15;4.20;;;;;;;17.97;59.94;101896.00;4965513;28;20033;-80
2023/06/27 02:12:31;;;;;;;8.32;3.30;;;;;;;17.89;60.48;101901.75;4966435;28;20463;-80
2023/06/27 02:14:56;;;;;;;6.85;3.22;;;;;;;17.92;59.91;101888.22;4967843;28;20106;-80
2023/06/27 02:17:22;;;;;;;9.65;3.63;;;;;;;17.98;59.60;101882.53;4969177;28;20038;-80
2023/06/27 02:19:47;;;;;;;7.25;3.42;;;;;;;18.04;59.22;101887.53;4962054;28;20022;-80
2023/06/27 02:22:12;;;;;;;7.25;3.30;;;;;;;18.10;59.16;101894.38;4969844;28;20033;-80
2023/06/27 02:24:37;;;;;;;11.00;3.78;;;;;;;18.07;59.54;101891.84;4962650;28;20557;-80
2023/06/27 02:27:03;;;;;;;6.25;3.33;;;;;;;18.01;59.62;101886.84;4953033;28;20066;-80
2023/06/27 02:29:28;;;;;;;9.35;3.40;;;;;;;17.94;60.10;101878.28;4951451;28;20037;-80
2023/06/27 02:31:54;;;;;;;9.75;3.47;;;;;;;17.88;59.84;101877.75;4945791;28;20035;-80
2023/06/27 02:34:19;;;;;;;11.82;4.03;;;;;;;17.79;60.52;101881.78;4963390;28;20422;-80
2023/06/27 02:36:45;;;;;;;10.55;3.53;;;;;;;17.69;60.56;101881.38;4971291;28;20034;-80
2023/06/27 02:39:10;;;;;;;7.60;3.65;;;;;;;17.68;61.58;101881.47;4951341;28;20508;-80
2023/06/27 02:41:35;;;;;;;8.40;3.25;;;;;;;17.71;60.91;101878.63;4951041;28;20197;-80
2023/06/27 02:44:00;;;;;;;7.85;3.58;;;;;;;17.67;63.14;101880.59;4968082;28;20109;-80
2023/06/27 02:46:26;;;;;;;11.88;3.65;;;;;;;17.56;62.01;101880.31;4948401;28;20046;-80
2023/06/27 02:48:51;;;;;;;7.95;3.33;;;;;;;17.64;61.25;101878.09;4968554;28;20548;-80
2023/06/27 02:51:16;;;;;;;10.45;4.20;;;;;;;17.50;62.04;101877.97;4964316;28;20029;-80
2023/06/27 02:53:41;;;;;;;10.18;3.05;;;;;;;17.51;61.49;101885.03;4964195;28;20270;-80
2023/06/27 02:56:07;;;;;;;9.75;3.60;;;;;;;17.42;62.51;101872.16;4946929;29;20033;-80
2023/06/27 02:58:33;;;;;;;8.13;3.65;;;;;;;17.38;62.66;101876.78;4949143;28;20089;-80
2023/06/27 03:01:00;;;;;;;10.18;3.22;;;;;;;17.34;63.39;101870.72;4961198;28;20031;-80
2023/06/27 03:03:26;;;;;;;9.23;3.40;;;;;;;17.34;63.73;101880.56;4942620;28;20454;-80
2023/06/27 03:05:51;;;;;;;6.93;3.38;;;;;;;17.44;61.82;101891.63;4965400;28;20081;-80
2023/06/27 03:08:16;;;;;;;9.23;3.90;;;;;;;17.46;61.93;101885.28;4967360;28;20103;-80
2023/06/27 03:10:42;;;;;;;7.68;3.22;;;;;;;17.51;61.65;101890.38;4968613;28;20043;-80
2023/06/27 03:13:07;;;;;;;10.02;3.60;;;;;;;17.45;61.90;101886.22;4968478;28;20030;-80
2023/06/27 03:15:32;;;;;;;6.65;3.50;;;;;;;17.39;62.33;101874.97;4962183;28;20039;-80
2023/06/27 03:17:58;;;;;;;10.02;3.20;;;;;;;17.37;62.76;101879.53;4966019;28;20073;-80
2023/06/27 03:20:23;;;;;;;8.93;3.05;;;;;;;17.25;62.95;101886.38;4947237;28;20756;-80
2023/06/27 03:22:48;;;;;;;11.70;3.42;;;;;;;17.31;62.44;101891.44;4948965;28;20034;-80
2023/06/27 03:25:14;;;;;;;7.70;4.03;;;;;;;17.32;63.15;101877.13;4964938;28;20035;-80
2023/06/27 03:27:39;;;;;;;11.18;3.58;;;;;;;17.26;63.05;101889.00;4969123;28;20034;-80
2023/06/27 03:30:07;;;;;;;8.77;3.50;;;;;;;17.38;63.49;101886.63;4952421;28;21419;-80
2023/06/27 03:32:33;;;;;;;8.32;3.58;;;;;;;17.28;63.17;101880.88;4951511;28;20018;-80
2023/06/27 03:34:58;;;;;;;10.38;3.65;;;;;;;17.30;62.94;101889.72;4965379;28;20034;-80
2023/06/27 03:37:24;;;;;;;9.52;3.38;;;;;;;17.33;63.11;101886.84;4964594;28;20042;-80
2023/06/27 03:39:49;;;;;;;7.88;3.53;;;;;;;17.26;63.20;101889.00;4970792;28;20029;-80
2023/06/27 03:42:16;;;;;;;6.13;3.40;;;;;;;17.22;62.98;101887.41;4953171;28;20081;-80
2023/06/27 03:44:42;;;;;;;8.63;3.00;;;;;;;17.24;63.39;101890.88;4947572;28;20031;-80
2023/06/27 03:47:07;;;;;;;5.82;3.17;;;;;;;17.23;63.15;101890.94;4965197;28;20553;-80
2023/06/27 03:49:33;;;;;;;12.50;3.83;;;;;;;17.16;63.42;101889.53;4970132;28;20113;-80
2023/06/27 03:51:58;;;;;;;9.57;3.85;;;;;;;17.19;64.67;101887.56;4951431;28;20023;-80
2023/06/27 03:54:24;;;;;;;11.90;3.50;;;;;;;17.25;63.65;101889.06;4945882;28;20027;-80
2023/06/27 03:56:49;;;;;;;9.63;3.97;;;;;;;17.24;63.39;101893.53;4949386;28;20545;-80
2023/06/27 03:59:14;;;;;;;10.35;3.70;;;;;;;17.29;63.42;101893.31;4965040;28;20034;-80
2023/06/27 04:01:41;;;;;;;9.80;3.40;;;;;;;17.36;62.93;101900.06;4961374;28;20034;-80
2023/06/27 04:04:07;;;;;;;10.13;3.50;;;;;;;17.32;63.76;101896.69;4964809;28;20030;-80
2023/06/27 04:06:32;;;;;;;6.95;3.80;;;;;;;17.22;63.69;101897.25;4962478;28;20019;-80
2023/06/27 04:08:57;;;;;;;11.85;3.88;;;;;;;17.13;64.87;101892.38;4945616;28;20514;-80
2023/06/27 04:11:23;;;;;;;9.90;3.83;;;;;;;17.18;65.24;101895.66;4946767;28;20038;-80
2023/06/27 04:13:48;;;;;;;11.10;4.00;;;;;;;17.17;64.21;101891.28;4947592;28;20027;-80
2023/06/27 04:16:14;;;;;;;10.52;3.65;;;;;;;17.14;64.60;101888.75;4936326;29;20039;-80
2023/06/27 04:18:40;;;;;;;14.10;3.95;;;;;;;17.00;65.53;101898.31;4949964;28;20070;-80
2023/06/27 04:21:06;;;;;;;10.75;3.90;;;;;;;16.99;64.76;101895.75;4946489;28;20435;-80
2023/06/27 04:23:31;;;;;;;9.55;3.90;;;;;;;16.93;65.04;101893.38;4954603;28;20047;-80
2023/06/27 04:26:02;;;;;;;10.50;4.10;;;;;;;16.89;65.31;101894.47;4943682;28;20031;-80
2023/06/27 04:28:28;;;;;;;13.75;4.35;;;;;;;16.90;65.69;101888.19;4948046;28;20039;-80
2023/06/27 04:30:54;;;;;;;11.38;4.10;;;;;;;16.86;65.71;101894.63;4944346;29;20049;-80
2023/06/27 04:33:19;;;;;;;9.48;3.85;;;;;;;16.78;65.27;101889.63;4942278;28;20023;-80
2023/06/27 04:35:44;;;;;;;13.13;4.28;;;;;;;16.89;65.79;101895.34;4944834;28;20478;-80
2023/06/27 04:38:14;;;;;;;9.43;3.83;;;;;;;16.99;65.15;101901.09;4946299;28;20030;-80
2023/06/27 04:40:41;;;;;;;15.40;4.35;;;;;;;16.89;65.77;101897.16;4945030;29;20034;-80
2023/06/27 04:43:06;;;;;;;9.93;4.18;;;;;;;16.77;66.18;101895.94;4945622;28;20141;-79
2023/06/27 04:45:32;;;;;;;11.90;4.20;;;;;;;16.86;65.83;101906.16;4945685;28;20660;-80
2023/06/27 04:47:57;;;;;;;10.18;4.03;;;;;;;16.89;65.94;101907.81;4941145;28;20031;-80
2023/06/27 04:50:22;;;;;;;8.38;4.32;;;;;;;16.91;65.86;101906.78;4942950;28;20662;-80
2023/06/27 04:52:47;;;;;;;11.82;4.53;;;;;;;17.00;65.67;101911.69;4938192;28;20019;-80
2023/06/27 04:55:13;;;;;;;11.70;4.50;;;;;;;17.01;65.17;101909.88;4942975;28;20147;-80
2023/06/27 04:57:38;;;;;;;9.82;4.18;;;;;;;16.96;65.67;101910.09;4947008;28;20019;-80
2023/06/27 05:00:06;;;;;;;9.48;4.10;;;;;;;16.97;66.51;101913.63;4936439;29;20042;-80
2023/06/27 05:02:31;;;;;;;12.18;4.50;;;;;;;16.80;66.70;101911.81;4943619;29;20552;-80
2023/06/27 05:04:56;;;;;;;8.80;4.13;;;;;;;16.80;66.38;101910.00;4947330;28;20118;-80
2023/06/27 05:07:22;;;;;;;10.20;4.35;;;;;;;16.75;67.25;101909.38;4942258;28;20050;-80
2023/06/27 05:09:47;;;;;;;8.95;4.28;;;;;;;16.77;66.50;101906.63;4949688;28;20031;-80
2023/06/27 05:12:12;;;;;;;9.30;4.70;;;;;;;16.85;66.33;101911.59;4964583;28;20235;-79
2023/06/27 05:14:37;;;;;;;10.85;4.38;;;;;;;16.86;66.65;101913.31;4964719;28;20027;-79
2023/06/27 05:17:03;;;;;;;11.68;4.85;;;;;;;16.90;67.15;101913.09;4961602;28;20055;-79
2023/06/27 05:19:29;;;;;;;10.07;4.97;;;;;;;16.89;67.31;101918.50;4963049;28;20481;-79
2023/06/27 05:21:54;;;;;;;9.95;4.85;;;;;;;17.08;66.18;101920.19;4948599;28;20026;-80
2023/06/27 05:24:19;;;;;;;12.73;4.93;;;;;;;17.29;66.38;101910.19;4961617;28;20037;-79
2023/06/27 05:26:44;;;;;;;15.07;5.03;;;;;;;17.47;65.15;101912.88;4967860;28;20019;-80
2023/06/27 05:29:10;;;;;;;10.10;4.75;;;;;;;17.60;65.21;101911.28;4961175;28;20497;-79
2023/06/27 05:31:35;;;;;;;12.52;4.70;;;;;;;17.67;65.56;101910.00;4966281;28;20039;-79
2023/06/27 05:34:00;;;;;;;9.80;4.78;;;;;;;17.84;64.72;101911.84;4944480;28;20550;-80
2023/06/27 05:36:25;;;;;;;12.13;4.90;;;;;;;18.00;64.68;101917.22;4963690;28;20564;-80
2023/06/27 05:38:51;;;;;;;9.82;4.70;;;;;;;17.89;65.16;101909.78;4958658;28;20027;-79
2023/06/27 05:41:18;;;;;;;10.82;4.75;;;;;;;17.83;65.91;101916.31;4968721;28;20485;-80
2023/06/27 05:43:44;;;;;;;13.43;4.57;;;;;;;17.92;65.62;101906.09;4943468;29;20023;-80
2023/06/27 05:46:10;;;;;;;11.02;4.65;;;;;;;18.02;65.46;101910.84;4962641;28;20027;-80
2023/06/27 05:48:35;;;;;;;12.10;5.55;;;;;;;18.12;65.89;101908.53;4964731;28;20379;-80
2023/06/27 05:51:00;;;;;;;11.50;4.95;;;;;;;18.31;65.42;101911.91;4953844;28;20035;-80
2023/06/27 05:53:25;;;;;;;13.50;5.38;;;;;;;18.44;64.53;101905.88;4964220;28;20027;-79
2023/06/27 05:55:51;;;;;;;16.05;5.32;;;;;;;18.47;64.58;101903.03;4952221;28;20109;-79
2023/06/27 05:58:16;;;;;;;11.40;5.03;;;;;;;18.56;63.98;101911.41;4950974;28;20026;-80
2023/06/27 06:00:41;;;;;;;11.27;4.88;;;;;;;18.59;63.87;101911.22;4968431;28;20482;-80
2023/06/27 06:03:06;;;;;;;14.70;5.13;;;;;;;18.60;64.33;101912.97;4967993;28;20027;-80
2023/06/27 06:05:32;;;;;;;12.35;5.30;;;;;;;18.65;64.38;101909.16;4967209;28;20473;-80
2023/06/27 06:07:57;;;;;;;11.13;5.30;;;;;;;18.60;64.59;101912.09;4969449;28;20058;-80
2023/06/27 06:10:23;;;;;;;11.35;4.75;;;;;;;18.66;64.22;101902.88;4969030;28;20039;-80
2023/06/27 06:12:48;;;;;;;13.93;5.40;;;;;;;18.66;64.48;101903.72;4969598;28;20030;-79
2023/06/27 06:15:14;;;;;;;13.23;5.88;;;;;;;18.74;64.61;101897.94;4968890;28;20093;-80
2023/06/27 06:17:39;;;;;;;12.25;5.35;;;;;;;18.80;64.20;101906.50;4965300;28;20482;-80
2023/06/27 06:20:11;;;;;;;17.60;6.18;;;;;;;18.80;63.99;101914.53;4967310;28;20122;-80
2023/06/27 06:22:37;;;;;;;14.20;5.15;;;;;;;18.93;64.00;101909.34;4952703;28;20030;-80
2023/06/27 06:25:03;;;;;;;16.45;5.97;;;;;;;19.06;63.57;101910.31;4967556;28;20034;-80
2023/06/27 06:27:28;;;;;;;13.63;5.65;;;;;;;19.24;63.16;101905.69;4960553;28;20078;-82
2023/06/27 06:29:54;;;;;;;15.48;5.82;;;;;;;19.43;62.70;101910.81;4968322;28;20027;-80
2023/06/27 06:32:19;;;;;;;12.13;5.43;;;;;;;19.57;61.87;101915.34;4967263;28;20493;-79
2023/06/27 06:34:44;;;;;;;14.77;5.88;;;;;;;19.60;62.31;101915.22;4948216;28;20081;-80
2023/06/27 06:37:09;;;;;;;10.18;4.95;;;;;;;19.86;61.41;101919.84;4970423;28;20106;-80
2023/06/27 06:39:35;;;;;;;13.00;6.03;;;;;;;20.00;60.82;101920.78;4969410;28;20046;-80
2023/06/27 06:42:01;;;;;;;10.68;5.35;;;;;;;20.03;61.39;101926.81;4973209;28;20042;-80
2023/06/27 06:44:26;;;;;;;12.70;6.35;;;;;;;19.95;61.53;101925.56;4953189;28;20561;-80
2023/06/27 06:46:51;;;;;;;10.45;5.43;;;;;;;20.19;60.53;101924.06;4949286;28;20261;-80
2023/06/27 06:49:16;;;;;;;14.45;5.93;;;;;;;20.28;60.87;101934.19;4950158;28;20034;-80
2023/06/27 06:51:42;;;;;;;13.07;5.57;;;;;;;20.42;60.42;101927.06;4970404;28;20106;-80
2023/06/27 06:54:07;;;;;;;14.98;5.00;;;;;;;20.61;58.81;101924.94;4966478;28;20031;-80
2023/06/27 06:56:32;;;;;;;12.82;5.13;;;;;;;20.85;58.99;101927.88;4949369;28;20386;-80
2023/06/27 06:58:58;;;;;;;21.45;5.45;;;;;;;20.87;58.07;101929.50;4954144;28;20041;-80
2023/06/27 07:01:24;;;;;;;13.05;4.93;;;;;;;20.84;58.57;101928.81;4945865;28;20505;-80
2023/06/27 07:03:49;;;;;;;8.82;4.43;;;;;;;21.05;59.99;101926.53;4967092;28;20034;-80
2023/06/27 07:06:15;;;;;;;13.10;5.20;;;;;;;21.25;57.39;101930.56;4948746;28;20390;-80
2023/06/27 07:08:40;;;;;;;12.85;4.82;;;;;;;21.36;57.65;101922.69;4953548;28;20059;-80
2023/06/27 07:11:07;;;;;;;13.98;4.95;;;;;;;21.19;56.94;101929.16;4968020;28;20051;-80
2023/06/27 07:13:32;;;;;;;12.20;5.32;;;;;;;21.23;55.85;101933.38;4948912;28;20414;-80
2023/06/27 07:15:57;;;;;;;14.50;4.90;;;;;;;21.40;56.77;101934.94;4967083;28;20052;-80
2023/06/27 07:18:23;;;;;;;16.13;4.75;;;;;;;21.68;56.41;101931.19;4953921;28;20035;-81
2023/06/27 07:20:48;;;;;;;13.23;4.07;;;;;;;21.91;53.39;101940.34;4967261;28;20118;-81
2023/06/27 07:23:15;;;;;;;13.02;4.20;;;;;;;22.16;53.21;101939.53;4965416;28;20512;-80
2023/06/27 07:25:41;;;;;;;8.77;4.15;;;;;;;22.62;51.29;101937.06;4963189;28;20125;-81
2023/06/27 07:28:06;;;;;;;10.90;4.57;;;;;;;22.70;51.92;101939.16;4966497;28;20478;-80
2023/06/27 07:30:31;;;;;;;9.02;4.40;;;;;;;22.69;50.94;101934.75;4949192;28;20070;-80
2023/06/27 07:32:56;;;;;;;11.93;4.28;;;;;;;22.78;49.39;101930.53;4967402;28;20026;-81
2023/06/27 07:35:22;;;;;;;13.68;3.75;;;;;;;22.86;49.14;101938.91;4964990;28;20034;-81
2023/06/27 07:37:47;;;;;;;9.93;3.47;;;;;;;23.00;48.92;101929.81;4946667;28;20054;-80
2023/06/27 07:40:13;;;;;;;10.25;3.45;;;;;;;23.23;49.10;101922.69;4961832;28;20027;-81
2023/06/27 07:42:38;;;;;;;10.63;3.78;;;;;;;23.57;47.79;101923.63;4964462;28;20438;-80
2023/06/27 07:45:05;;;;;;;9.73;4.07;;;;;;;23.79;46.97;101925.53;4951935;28;20022;-80
2023/06/27 07:47:30;;;;;;;10.15;3.38;;;;;;;23.97;45.98;101934.00;4965573;28;20039;-80
2023/06/27 07:49:55;;;;;;;8.98;3.63;;;;;;;23.87;45.96;101931.19;4951249;28;20038;-80
2023/06/27 07:52:21;;;;;;;14.63;3.90;;;;;;;23.73;46.66;101934.97;4968412;28;20355;-81
2023/06/27 07:54:46;;;;;;;10.27;3.40;;;;;;;23.56;47.74;101925.47;4967401;28;21288;-81
2023/06/27 07:57:11;;;;;;;7.97;3.15;;;;;;;23.38;48.33;101924.19;4947219;28;20130;-80
2023/06/27 07:59:37;;;;;;;7.05;2.72;;;;;;;23.27;46.15;101927.72;4966222;28;20026;-80
2023/06/27 08:02:02;;;;;;;6.47;2.23;;;;;;;23.16;46.59;101922.28;4964747;28;20031;-80
2023/06/27 08:04:27;;;;;;;10.25;2.40;;;;;;;23.21;46.60;101924.63;4964212;28;20645;-80
2023/06/27 08:06:53;;;;;;;6.82;2.35;;;;;;;23.30;44.72;101932.00;4964666;28;20034;-80
2023/06/27 08:09:20;;;;;;;6.18;1.92;;;;;;;23.47;44.11;101922.63;4965536;28;20049;-80
2023/06/27 08:11:45;;;;;;;6.05;2.53;;;;;;;23.47;43.72;101926.19;4947319;28;20130;-80
2023/06/27 08:14:10;;;;;;;6.70;1.60;;;;;;;23.92;42.75;101932.56;4966814;28;20450;-80
2023/06/27 08:16:36;;;;;;;5.15;1.77;;;;;;;24.01;42.91;101930.94;4965366;28;20074;-80
2023/06/27 08:19:01;;;;;;;4.50;2.40;;;;;;;23.99;44.12;101926.66;4969649;28;20566;-80
2023/06/27 08:21:26;;;;;;;4.72;1.50;;;;;;;24.05;40.59;101920.75;4951599;28;20290;-80
2023/06/27 08:23:52;;;;;;;4.90;1.50;;;;;;;24.09;43.31;101920.38;4968464;28;20510;-80
2023/06/27 08:26:18;;;;;;;4.43;1.60;;;;;;;24.19;41.21;101920.50;4964305;28;20023;-80
2023/06/27 08:28:44;;;;;;;5.70;1.98;;;;;;;24.16;41.42;101918.06;4966458;28;20094;-80
2023/06/27 08:31:10;;;;;;;6.07;2.03;;;;;;;24.21;40.65;101921.25;4965798;28;20497;-80
2023/06/27 08:33:36;;;;;;;6.45;2.00;;;;;;;24.18;40.35;101919.66;4966501;28;20023;-80
2023/06/27 08:36:01;;;;;;;4.25;1.50;;;;;;;24.26;40.92;101915.47;4966694;28;20061;-80
2023/06/27 08:38:27;;;;;;;6.45;1.77;;;;;;;24.44;41.24;101908.59;4945841;28;20113;-80
2023/06/27 08:40:56;;;;;;;2.72;1.65;;;;;;;24.51;40.76;101920.63;4947154;28;20540;-80
2023/06/27 08:43:22;;;;;;;6.25;2.13;;;;;;;24.57;40.68;101921.97;4965020;28;20510;-80
2023/06/27 08:45:51;;;;;;;5.20;1.90;;;;;;;24.49;41.38;101916.34;4948747;28;20046;-80
2023/06/27 08:48:17;;;;;;;7.15;2.17;;;;;;;24.49;42.05;101908.22;4963634;28;20478;-80
2023/06/27 08:50:43;;;;;;;8.40;2.10;;;;;;;24.56;40.96;101910.28;4946362;28;20030;-80
2023/06/27 08:53:13;;;;;;;3.72;1.83;;;;;;;24.66;40.62;101921.19;4967575;28;20030;-81
2023/06/27 08:55:57;;;;;;;6.63;1.90;;;;;;;24.60;42.01;101913.59;4968642;28;20038;-80
2023/06/27 08:58:27;;;;;;;9.80;2.10;;;;;;;24.52;41.27;101907.97;4946900;28;21157;-80
2023/06/27 09:00:53;;;;;;;4.47;2.15;;;;;;;24.48;41.67;101909.19;4965760;28;20041;-80
2023/06/27 09:03:19;;;;;;;5.78;2.17;;;;;;;24.52;41.48;101906.13;4962010;28;20570;-81
2023/06/27 09:05:47;;;;;;;6.90;2.20;;;;;;;24.53;42.27;101902.44;4962058;28;20027;-80
2023/06/27 09:08:12;;;;;;;7.85;2.20;;;;;;;24.61;42.44;101901.78;4967453;28;20043;-80
2023/06/27 09:10:38;;;;;;;5.90;2.15;;;;;;;24.65;41.42;101901.41;4966553;28;20463;-80
2023/06/27 09:13:04;;;;;;;6.97;2.40;;;;;;;24.72;41.82;101901.78;4968112;28;20049;-80
2023/06/27 09:15:29;;;;;;;5.05;2.13;;;;;;;24.88;41.69;101902.19;4961801;28;20023;-80
2023/06/27 09:17:54;;;;;;;3.92;2.20;;;;;;;24.80;41.43;101903.81;4965505;28;20465;-82
2023/06/27 09:20:20;;;;;;;5.53;2.10;;;;;;;24.79;40.93;101902.97;4970168;28;20049;-80
2023/06/27 09:22:45;;;;;;;5.18;2.22;;;;;;;24.74;40.72;101912.47;4969387;28;20110;-80
2023/06/27 09:25:12;;;;;;;8.18;1.92;;;;;;;24.63;41.12;101902.53;4972265;28;20023;-80
2023/06/27 09:27:37;;;;;;;9.50;2.05;;;;;;;24.70;41.00;101906.44;4970871;28;20140;-80
2023/06/27 09:30:05;;;;;;;7.63;2.40;;;;;;;24.82;40.89;101907.28;4971186;28;20517;-80
2023/06/27 09:32:30;;;;;;;5.75;1.92;;;;;;;25.04;38.99;101901.78;4973609;28;20460;-80
2023/06/27 09:34:55;;;;;;;6.03;1.67;;;;;;;25.03;38.55;101904.59;4968432;28;20051;-80
2023/06/27 09:37:27;;;;;;;6.93;1.80;;;;;;;24.96;37.93;101909.69;4967308;28;20026;-79
2023/06/27 09:39:53;;;;;;;;;;;;;;;25.15;39.80;101906.31;4969527;28;20030;-80
2023/06/27 09:42:18;;;;;;;4.77;1.60;;;;;;;24.82;39.15;101912.69;4948208;28;20452;-80
2023/06/27 09:44:43;;;;;;;7.33;1.47;;;;;;;24.82;39.49;101915.41;4951671;28;20687;-80
2023/06/27 09:47:10;;;;;;;6.45;1.60;;;;;;;25.05;38.56;101919.72;4950885;28;20333;-79
2023/06/27 09:49:38;;;;;;;4.88;1.63;;;;;;;25.27;37.65;101926.91;4945755;28;20030;-80
2023/06/27 09:52:04;;;;;;;4.00;1.40;;;;;;;25.61;38.15;101927.59;4966566;28;20213;-80
2023/06/27 09:54:30;;;;;;;4.10;1.50;;;;;;;26.01;37.85;101923.25;4968551;28;20105;-80
2023/06/27 09:56:56;;;;;;;5.35;1.40;;;;;;;26.48;35.77;101924.44;4965679;28;20030;-80
2023/06/27 09:59:26;;;;;;;5.30;1.63;;;;;;;26.70;35.58;101928.78;4969765;28;20050;-80
2023/06/27 10:01:53;;;;;;;4.45;1.55;;;;;;;26.79;33.24;101919.81;4970904;28;20019;-79
2023/06/27 10:04:19;;;;;;;5.82;1.20;;;;;;;26.64;34.53;101919.38;4967502;28;20027;-80
2023/06/27 10:06:45;;;;;;;3.42;1.60;;;;;;;26.85;33.85;101918.38;4968692;28;20426;-80
2023/06/27 10:09:11;;;;;;;5.07;1.10;;;;;;;26.67;34.45;101921.81;4969569;28;20122;-80
2023/06/27 10:11:37;;;;;;;4.75;1.38;;;;;;;26.73;33.63;101914.09;4971527;28;20536;-80
2023/06/27 10:14:03;;;;;;;4.30;1.15;;;;;;;26.79;32.40;101908.94;4968161;28;20019;-80
2023/06/27 10:16:29;;;;;;;3.85;1.48;;;;;;;27.02;32.93;101908.69;4962840;28;20019;-80
2023/06/27 10:18:55;;;;;;;5.22;1.30;;;;;;;27.12;33.16;101915.00;4952806;28;20034;-80
2023/06/27 10:21:24;;;;;;;4.25;1.10;;;;;;;27.26;33.18;101917.28;4949805;28;20035;-80
2023/06/27 10:23:52;;;;;;;3.22;1.27;;;;;;;27.18;31.51;101915.25;4947573;28;20106;-80
2023/06/27 10:26:19;;;;;;;3.30;1.10;;;;;;;27.13;32.28;101925.69;4967753;28;20069;-80
2023/06/27 10:28:51;;;;;;;3.83;1.15;;;;;;;27.33;32.79;101928.44;4967444;28;20019;-80
2023/06/27 10:31:37;;;;;;;3.65;1.25;;;;;;;27.96;32.02;101916.00;4948821;28;20051;-80
2023/06/27 10:34:03;;;;;;;3.15;1.17;;;;;;;27.89;31.23;101920.31;4962870;28;20381;-80
2023/06/27 10:36:49;;;;;;;4.28;1.20;;;;;;;28.01;32.16;101923.69;4968352;28;20019;-80
2023/06/27 10:39:37;;;;;;;2.40;1.00;;;;;;;27.65;32.54;101917.19;4948986;28;20089;-80
2023/06/27 10:42:06;;;;;;;4.47;1.20;;;;;;;27.70;29.91;101913.06;4964772;28;20031;-81
2023/06/27 10:44:36;;;;;;;3.83;1.02;;;;;;;27.66;29.41;101918.94;4947150;28;20034;-80
2023/06/27 10:47:16;;;;;;;1.27;0.82;;;;;;;28.21;30.80;101911.75;4945923;28;20781;-81
2023/06/27 10:49:51;;;;;;;2.78;0.90;;;;;;;28.45;30.25;101916.66;4969584;28;20039;-79
2023/06/27 10:52:21;;;;;;;4.63;1.20;;;;;;;28.90;28.31;101909.47;4970325;28;20058;-77
2023/06/27 10:55:15;;;;;;;3.40;1.23;;;;;;;28.88;28.85;101906.91;4967516;28;20031;-79
2023/06/27 10:57:45;;;;;;;1.75;0.90;;;;;;;28.87;28.53;101899.75;4967913;28;21507;-79
2023/06/27 11:00:14;;;;;;;5.85;1.02;;;;;;;28.86;28.88;101900.75;4964116;28;20023;-79
2023/06/27 11:02:43;;;;;;;2.42;0.95;;;;;;;28.66;28.10;101900.03;4962973;28;20030;-79
2023/06/27 11:05:15;;;;;;;2.85;0.90;;;;;;;28.72;28.04;101904.88;4970450;28;20030;-80
2023/06/27 11:07:52;;;;;;;2.38;0.90;;;;;;;28.95;29.49;101905.28;4966434;28;20050;-79
2023/06/27 11:10:25;;;;;;;2.45;0.60;;;;;;;28.89;28.01;101908.59;4968936;28;20474;-79
2023/06/27 11:13:11;;;;;;;2.17;0.90;;;;;;;29.09;27.45;101906.59;4951097;28;20504;-79
2023/06/27 11:15:37;;;;;;;1.98;1.10;;;;;;;28.81;26.76;101910.38;4971827;28;21268;-78
2023/06/27 11:18:09;;;;;;;3.97;1.10;;;;;;;28.65;27.07;101908.38;4968254;28;20105;-79
2023/06/27 11:20:35;;;;;;;2.47;1.17;;;;;;;28.42;27.99;101906.06;4964162;28;20026;-80